Time;durP1;ratioP1;P1;durP2;ratioP2;P2;SDS_P1;SDS_P2;PMS_P1;PMS_P2;Temp;Humidity;BMP_temperature;BMP_pressure;BME280_temperature;BME280_humidity;BME280_pressure;Samples;Min_cycle;Max_cycle;Signal;HPM_P1;HPM_P2
2023/03/15 00:00:52;;;;;;;;;;;;;;;;;;6183760;23;20340;-92
2023/03/15 00:03:18;;;;;;;;;;;;;;;;;;6185628;23;20510;-92
2023/03/15 00:05:44;;;;;;;;;;;;;;;;;;6183647;23;19950;-92
2023/03/15 00:08:11;;;;;;;;;;;;;;;;;;6207154;23;19920;-91
2023/03/15 00:10:37;;;;;;;;;;;;;;;;;;6202257;23;19971;-92
2023/03/15 00:13:03;;;;;;;;;;;;;;;;;;6207854;23;20009;-92
2023/03/15 00:15:29;;;;;;;;;;;;;;;;;;6207335;23;19986;-91
2023/03/15 00:17:55;;;;;;;;;;;;;;;;;;6205739;23;20237;-92
2023/03/15 00:20:21;;;;;;;;;;;;;;;;;;6184966;23;19920;-92
2023/03/15 00:22:47;;;;;;;;;;;;;;;;;;6179613;23;20284;-91
2023/03/15 00:25:13;;;;;;;;;;;;;;;;;;6182896;23;19916;-91
2023/03/15 00:27:39;;;;;;;;;;;;;;;;;;6178859;23;19920;-92
2023/03/15 00:30:05;;;;;;;;;;;;;;;;;;6211942;23;19916;-92
2023/03/15 00:32:31;;;;;;;;;;;;;;;;;;6189459;23;20248;-91
2023/03/15 00:34:57;;;;;;;;;;;;;;;;;;6239739;23;19926;-91
2023/03/15 00:37:24;;;;;;;;;;;;;;;;;;6212442;23;19923;-92
2023/03/15 00:39:50;;;;;;;;;;;;;;;;;;6186614;23;19920;-91
2023/03/15 00:42:16;;;;;;;;;;;;;;;;;;6210909;23;20233;-91
2023/03/15 00:44:42;;;;;;;;;;;;;;;;;;6204971;23;19922;-91
2023/03/15 00:47:08;;;;;;;;;;;;;;;;;;6209715;23;19920;-91
2023/03/15 00:49:37;;;;;;;;;;;;;;;;;;6208754;23;19916;-91
2023/03/15 00:52:03;;;;;;;;;;;;;;;;;;6209381;23;20256;-90
2023/03/15 00:54:32;;;;;;;;;;;;;;;;;;6183639;23;19924;-91
2023/03/15 00:56:58;;;;;;;;;;;;;;;;;;6209154;23;19923;-91
2023/03/15 00:59:24;;;;;;;;;;;;;;;;;;6236708;23;19923;-91
2023/03/15 01:01:50;;;;;;;;;;;;;;;;;;6181821;23;19981;-91
2023/03/15 01:04:16;;;;;;;;;;;;;;;;;;6209906;23;19916;-90
2023/03/15 01:06:42;;;;;;;;;;;;;;;;;;6182979;23;19923;-91
2023/03/15 01:09:08;;;;;;;;;;;;;;;;;;6185271;23;19920;-90
2023/03/15 01:11:33;;;;;;;;;;;;;;;;;;6182863;23;20291;-91
2023/03/15 01:14:00;;;;;;;;;;;;;;;;;;6178870;23;19927;-90
2023/03/15 01:16:25;;;;;;;;;;;;;;;;;;6208578;23;20607;-91
2023/03/15 01:18:52;;;;;;;;;;;;;;;;;;6233470;23;19922;-91
2023/03/15 01:21:17;;;;;;;;;;;;;;;;;;6235607;23;19923;-91
2023/03/15 01:23:43;;;;;;;;;;;;;;;;;;6181990;23;19990;-91
2023/03/15 01:26:09;;;;;;;;;;;;;;;;;;6180956;23;20309;-91
2023/03/15 01:28:35;;;;;;;;;;;;;;;;;;6181340;23;20345;-92
2023/03/15 01:31:01;;;;;;;;;;;;;;;;;;6183596;23;19999;-91
2023/03/15 01:33:27;;;;;;;;;;;;;;;;;;6183567;23;19934;-91
2023/03/15 01:35:53;;;;;;;;;;;;;;;;;;6181599;23;19929;-92
2023/03/15 01:38:20;;;;;;;;;;;;;;;;;;6183095;23;19920;-92
2023/03/15 01:40:46;;;;;;;;;;;;;;;;;;6206710;23;19915;-92
2023/03/15 01:43:12;;;;;;;;;;;;;;;;;;6207617;23;19919;-92
2023/03/15 01:45:37;;;;;;;;;;;;;;;;;;6205428;23;19939;-91
2023/03/15 01:48:03;;;;;;;;;;;;;;;;;;6183794;23;19923;-92
2023/03/15 01:50:29;;;;;;;;;;;;;;;;;;6183504;23;20233;-92
2023/03/15 01:52:55;;;;;;;;;;;;;;;;;;6206850;23;20034;-91
2023/03/15 01:55:22;;;;;;;;;;;;;;;;;;6180537;23;19919;-92
2023/03/15 01:57:48;;;;;;;;;;;;;;;;;;6201216;23;19956;-91
2023/03/15 02:00:14;;;;;;;;;;;;;;;;;;6202318;23;20341;-92
2023/03/15 02:02:45;;;;;;;;;;;;;;;;;;6175849;23;19916;-92
2023/03/15 02:05:11;;;;;;;;;;;;;;;;;;6202936;23;20329;-92
2023/03/15 02:07:37;;;;;;;;;;;;;;;;;;6200780;23;19959;-92
2023/03/15 02:10:03;;;;;;;;;;;;;;;;;;6205729;23;19970;-92
2023/03/15 02:12:29;;;;;;;;;;;;;;;;;;6179617;23;20025;-91
2023/03/15 02:14:55;;;;;;;;;;;;;;;;;;6175570;23;20287;-92
2023/03/15 02:17:21;;;;;;;;;;;;;;;;;;6203890;23;19916;-93
2023/03/15 02:19:47;;;;;;;;;;;;;;;;;;6175825;23;19927;-92
2023/03/15 02:22:13;;;;;;;;;;;;;;;;;;6204244;23;20337;-92
2023/03/15 02:24:42;;;;;;;;;;;;;;;;;;6177200;23;19924;-93
2023/03/15 02:27:08;;;;;;;;;;;;;;;;;;6179536;23;19923;-92
2023/03/15 02:29:35;;;;;;;;;;;;;;;;;;6152116;23;19920;-92
2023/03/15 02:32:03;;;;;;;;;;;;;;;;;;6203545;23;20449;-94
2023/03/15 02:34:30;;;;;;;;;;;;;;;;;;6204489;23;19916;-93
2023/03/15 02:36:56;;;;;;;;;;;;;;;;;;6203006;23;19926;-92
2023/03/15 02:39:23;;;;;;;;;;;;;;;;;;6179774;23;19948;-93
2023/03/15 02:41:49;;;;;;;;;;;;;;;;;;6175527;23;20248;-93
2023/03/15 02:44:15;;;;;;;;;;;;;;;;;;6151031;23;19954;-92
2023/03/15 02:46:41;;;;;;;;;;;;;;;;;;6199399;23;19916;-92
2023/03/15 02:49:07;;;;;;;;;;;;;;;;;;6175197;23;19920;-92
2023/03/15 02:51:33;;;;;;;;;;;;;;;;;;6174989;23;19924;-93
2023/03/15 02:53:59;;;;;;;;;;;;;;;;;;6199695;23;20325;-92
2023/03/15 02:56:25;;;;;;;;;;;;;;;;;;6175130;23;19920;-92
2023/03/15 02:58:51;;;;;;;;;;;;;;;;;;6199010;23;19924;-92
2023/03/15 03:01:17;;;;;;;;;;;;;;;;;;6176749;23;19924;-92
2023/03/15 03:03:43;;;;;;;;;;;;;;;;;;6199226;23;19919;-91
2023/03/15 03:06:09;;;;;;;;;;;;;;;;;;6200468;23;19928;-91
2023/03/15 03:08:35;;;;;;;;;;;;;;;;;;6173166;23;20555;-92
2023/03/15 03:11:01;;;;;;;;;;;;;;;;;;6177052;23;19927;-93
2023/03/15 03:13:27;;;;;;;;;;;;;;;;;;6202344;23;19963;-92
2023/03/15 03:15:57;;;;;;;;;;;;;;;;;;6149399;23;20344;-93
2023/03/15 03:18:23;;;;;;;;;;;;;;;;;;6175439;23;19951;-92
2023/03/15 03:20:49;;;;;;;;;;;;;;;;;;6170762;23;20259;-93
2023/03/15 03:23:15;;;;;;;;;;;;;;;;;;6149257;23;19919;-92
2023/03/15 03:25:41;;;;;;;;;;;;;;;;;;6149110;23;20252;-92
2023/03/15 03:28:07;;;;;;;;;;;;;;;;;;6151907;23;19924;-92
2023/03/15 03:30:33;;;;;;;;;;;;;;;;;;6175075;23;20388;-92
2023/03/15 03:32:59;;;;;;;;;;;;;;;;;;6175071;23;19966;-91
2023/03/15 03:35:25;;;;;;;;;;;;;;;;;;6175832;23;19919;-92
2023/03/15 03:37:52;;;;;;;;;;;;;;;;;;6173860;23;19990;-91
2023/03/15 03:40:18;;;;;;;;;;;;;;;;;;6178532;23;19915;-91
2023/03/15 03:42:44;;;;;;;;;;;;;;;;;;6177121;23;19943;-92
2023/03/15 03:45:10;;;;;;;;;;;;;;;;;;6179648;23;19916;-93
2023/03/15 03:47:36;;;;;;;;;;;;;;;;;;6151572;23;20412;-91
2023/03/15 03:50:02;;;;;;;;;;;;;;;;;;6153818;23;20289;-91
2023/03/15 03:52:28;;;;;;;;;;;;;;;;;;6179673;23;19948;-91
2023/03/15 03:54:54;;;;;;;;;;;;;;;;;;6152339;23;19939;-90
2023/03/15 03:57:20;;;;;;;;;;;;;;;;;;6178019;23;19923;-91
2023/03/15 03:59:46;;;;;;;;;;;;;;;;;;6176425;23;20415;-91
2023/03/15 04:02:12;;;;;;;;;;;;;;;;;;6154239;23;19975;-91
2023/03/15 04:04:40;;;;;;;;;;;;;;;;;;6177727;23;19930;-91
2023/03/15 04:07:06;;;;;;;;;;;;;;;;;;6178620;23;20411;-90
2023/03/15 04:09:36;;;;;;;;;;;;;;;;;;6204775;23;19920;-90
2023/03/15 04:12:02;;;;;;;;;;;;;;;;;;6179749;23;20058;-91
2023/03/15 04:14:28;;;;;;;;;;;;;;;;;;6179188;23;19920;-91
2023/03/15 04:16:54;;;;;;;;;;;;;;;;;;6179463;23;20066;-90
2023/03/15 04:19:20;;;;;;;;;;;;;;;;;;6178162;23;19916;-91
2023/03/15 04:21:46;;;;;;;;;;;;;;;;;;6151453;23;20400;-90
2023/03/15 04:24:13;;;;;;;;;;;;;;;;;;6154954;23;19927;-91
2023/03/15 04:26:39;;;;;;;;;;;;;;;;;;6203188;23;19923;-90
2023/03/15 04:29:05;;;;;;;;;;;;;;;;;;6181322;23;19916;-90
2023/03/15 04:31:36;;;;;;;;;;;;;;;;;;6205872;23;19962;-90
2023/03/15 04:34:02;;;;;;;;;;;;;;;;;;6204521;23;19915;-90
2023/03/15 04:36:28;;;;;;;;;;;;;;;;;;6179852;23;19995;-90
2023/03/15 04:39:04;;;;;;;;;;;;;;;;;;6150551;23;19922;-90
2023/03/15 04:41:30;;;;;;;;;;;;;;;;;;6203618;23;20259;-90
2023/03/15 04:43:56;;;;;;;;;;;;;;;;;;6176950;23;19920;-90
2023/03/15 04:46:22;;;;;;;;;;;;;;;;;;6204997;23;19915;-90
2023/03/15 04:48:48;;;;;;;;;;;;;;;;;;6151649;23;19923;-90
2023/03/15 04:51:14;;;;;;;;;;;;;;;;;;6178312;23;19920;-90
2023/03/15 04:53:40;;;;;;;;;;;;;;;;;;6151109;23;19938;-90
2023/03/15 04:56:06;;;;;;;;;;;;;;;;;;6154018;23;19924;-91
2023/03/15 04:58:32;;;;;;;;;;;;;;;;;;6178382;23;19916;-91
2023/03/15 05:00:58;;;;;;;;;;;;;;;;;;6174188;23;19947;-90
2023/03/15 05:03:24;;;;;;;;;;;;;;;;;;6177940;23;20011;-90
2023/03/15 05:05:50;;;;;;;;;;;;;;;;;;6204367;23;19926;-90
2023/03/15 05:08:15;;;;;;;;;;;;;;;;;;6179523;23;20038;-90
2023/03/15 05:10:41;;;;;;;;;;;;;;;;;;6175790;23;19916;-90
2023/03/15 05:13:07;;;;;;;;;;;;;;;;;;6203443;23;19971;-90
2023/03/15 05:15:33;;;;;;;;;;;;;;;;;;6177948;23;19990;-89
2023/03/15 05:17:59;;;;;;;;;;;;;;;;;;6175367;23;20329;-90
2023/03/15 05:20:25;;;;;;;;;;;;;;;;;;6152488;23;19987;-90
2023/03/15 05:22:54;;;;;;;;;;;;;;;;;;6173422;23;19974;-90
2023/03/15 05:25:20;;;;;;;;;;;;;;;;;;6178012;23;19927;-90
2023/03/15 05:27:46;;;;;;;;;;;;;;;;;;6152316;23;19920;-91
2023/03/15 05:30:14;;;;;;;;;;;;;;;;;;6179221;23;19966;-90
2023/03/15 05:32:43;;;;;;;;;;;;;;;;;;6177371;23;19985;-90
2023/03/15 05:35:09;;;;;;;;;;;;;;;;;;6155523;23;20524;-92
2023/03/15 05:37:35;;;;;;;;;;;;;;;;;;6177383;23;19926;-90
2023/03/15 05:40:01;;;;;;;;;;;;;;;;;;6177961;23;20463;-90
2023/03/15 05:42:28;;;;;;;;;;;;;;;;;;6178598;23;19927;-90
2023/03/15 05:44:54;;;;;;;;;;;;;;;;;;6150911;23;19919;-89
2023/03/15 05:47:20;;;;;;;;;;;;;;;;;;6178915;23;19919;-90
2023/03/15 05:49:46;;;;;;;;;;;;;;;;;;6150935;23;19924;-90
2023/03/15 05:52:12;;;;;;;;;;;;;;;;;;6152616;23;19975;-90
2023/03/15 05:54:38;;;;;;;;;;;;;;;;;;6174907;23;19947;-90
2023/03/15 05:57:03;;;;;;;;;;;;;;;;;;6153868;23;20245;-90
2023/03/15 05:59:29;;;;;;;;;;;;;;;;;;6152603;23;19951;-90
2023/03/15 06:01:55;;;;;;;;;;;;;;;;;;6174752;23;20333;-90
2023/03/15 06:04:22;;;;;;;;;;;;;;;;;;6153439;23;19923;-90
2023/03/15 06:06:48;;;;;;;;;;;;;;;;;;6150430;23;19919;-89
2023/03/15 06:09:14;;;;;;;;;;;;;;;;;;6151515;23;19922;-90
2023/03/15 06:11:40;;;;;;;;;;;;;;;;;;6174102;23;19920;-89
2023/03/15 06:14:06;;;;;;;;;;;;;;;;;;6154204;23;20371;-90
2023/03/15 06:16:32;;;;;;;;;;;;;;;;;;6152250;23;20329;-90
2023/03/15 06:18:58;;;;;;;;;;;;;;;;;;6175469;23;19995;-89
2023/03/15 06:21:24;;;;;;;;;;;;;;;;;;6153723;23;19916;-90
2023/03/15 06:23:50;;;;;;;;;;;;;;;;;;6176988;23;20033;-90
2023/03/15 06:26:18;;;;;;;;;;;;;;;;;;6153750;23;19916;-90
2023/03/15 06:28:44;;;;;;;;;;;;;;;;;;6150590;23;19920;-90
2023/03/15 06:31:10;;;;;;;;;;;;;;;;;;6177643;23;19922;-90
2023/03/15 06:33:36;;;;;;;;;;;;;;;;;;6174946;23;19928;-90
2023/03/15 06:36:02;;;;;;;;;;;;;;;;;;6178245;23;19920;-90
2023/03/15 06:38:28;;;;;;;;;;;;;;;;;;6176165;23;20408;-90
2023/03/15 06:40:55;;;;;;;;;;;;;;;;;;6176439;23;19920;-90
2023/03/15 06:43:21;;;;;;;;;;;;;;;;;;6153368;23;19923;-89
2023/03/15 06:45:47;;;;;;;;;;;;;;;;;;6176807;23;19966;-90
2023/03/15 06:48:13;;;;;;;;;;;;;;;;;;6151870;23;20458;-90
2023/03/15 06:50:39;;;;;;;;;;;;;;;;;;6150824;23;19920;-90
2023/03/15 06:53:05;;;;;;;;;;;;;;;;;;6152468;23;19930;-91
2023/03/15 06:55:31;;;;;;;;;;;;;;;;;;6151444;23;19974;-91
2023/03/15 06:57:57;;;;;;;;;;;;;;;;;;6202342;23;19920;-90
2023/03/15 07:00:23;;;;;;;;;;;;;;;;;;6153277;23;19920;-92
2023/03/15 07:02:49;;;;;;;;;;;;;;;;;;6176126;23;20329;-90
2023/03/15 07:05:15;;;;;;;;;;;;;;;;;;6179468;23;20341;-90
2023/03/15 07:07:41;;;;;;;;;;;;;;;;;;6150694;23;19930;-90
2023/03/15 07:10:07;;;;;;;;;;;;;;;;;;6179262;23;19919;-90
2023/03/15 07:12:33;;;;;;;;;;;;;;;;;;6178753;23;19924;-90
2023/03/15 07:14:59;;;;;;;;;;;;;;;;;;6152650;23;20011;-90
2023/03/15 07:17:25;;;;;;;;;;;;;;;;;;6154046;23;19950;-90
2023/03/15 07:19:51;;;;;;;;;;;;;;;;;;6151334;23;20325;-91
2023/03/15 07:22:17;;;;;;;;;;;;;;;;;;6176286;23;20135;-90
2023/03/15 07:24:43;;;;;;;;;;;;;;;;;;6175494;23;20244;-90
2023/03/15 07:27:09;;;;;;;;;;;;;;;;;;6177061;23;19982;-90
2023/03/15 07:29:35;;;;;;;;;;;;;;;;;;6177138;23;19919;-90
2023/03/15 07:32:01;;;;;;;;;;;;;;;;;;6152746;23;20292;-91
2023/03/15 07:34:27;;;;;;;;;;;;;;;;;;6154613;23;19928;-90
2023/03/15 07:36:53;;;;;;;;;;;;;;;;;;6149420;23;19950;-89
2023/03/15 07:39:19;;;;;;;;;;;;;;;;;;6152450;23;20029;-90
2023/03/15 07:41:45;;;;;;;;;;;;;;;;;;6176233;23;20341;-90
2023/03/15 07:44:11;;;;;;;;;;;;;;;;;;6153505;23;20019;-91
2023/03/15 07:46:37;;;;;;;;;;;;;;;;;;6149364;23;19924;-92
2023/03/15 07:49:03;;;;;;;;;;;;;;;;;;6152771;23;20337;-91
2023/03/15 07:51:29;;;;;;;;;;;;;;;;;;6179455;23;19999;-92
2023/03/15 07:53:55;;;;;;;;;;;;;;;;;;6147990;23;20420;-91
2023/03/15 07:56:21;;;;;;;;;;;;;;;;;;6152777;23;20495;-91
2023/03/15 07:58:47;;;;;;;;;;;;;;;;;;6175353;23;19924;-91
2023/03/15 08:01:13;;;;;;;;;;;;;;;;;;6153756;23;20108;-92
2023/03/15 08:03:40;;;;;;;;;;;;;;;;;;6150291;23;19920;-92
2023/03/15 08:06:06;;;;;;;;;;;;;;;;;;6178382;23;19916;-92
2023/03/15 08:08:32;;;;;;;;;;;;;;;;;;6178824;23;19923;-90
2023/03/15 08:10:58;;;;;;;;;;;;;;;;;;6177342;23;19924;-92
2023/03/15 08:13:24;;;;;;;;;;;;;;;;;;6176502;23;19924;-92
2023/03/15 08:15:50;;;;;;;;;;;;;;;;;;6176593;23;19927;-92
2023/03/15 08:18:16;;;;;;;;;;;;;;;;;;6154102;23;19999;-92
2023/03/15 08:20:42;;;;;;;;;;;;;;;;;;6176067;23;19916;-93
2023/03/15 08:23:08;;;;;;;;;;;;;;;;;;6155076;23;20329;-92
2023/03/15 08:25:35;;;;;;;;;;;;;;;;;;6181407;23;19915;-93
2023/03/15 08:28:01;;;;;;;;;;;;;;;;;;6181067;23;19970;-93
2023/03/15 08:30:27;;;;;;;;;;;;;;;;;;6156313;23;19920;-93
2023/03/15 08:32:53;;;;;;;;;;;;;;;;;;6151858;23;19989;-93
2023/03/15 08:35:19;;;;;;;;;;;;;;;;;;6156485;23;19970;-93
2023/03/15 08:37:46;;;;;;;;;;;;;;;;;;6176906;23;20301;-93
2023/03/15 08:40:12;;;;;;;;;;;;;;;;;;6156750;23;19916;-93
2023/03/15 08:42:38;;;;;;;;;;;;;;;;;;6179621;23;19999;-93
2023/03/15 08:45:05;;;;;;;;;;;;;;;;;;6156404;23;19916;-93
2023/03/15 08:47:34;;;;;;;;;;;;;;;;;;6178010;23;19935;-92
2023/03/15 08:50:00;;;;;;;;;;;;;;;;;;6154044;23;19991;-92
2023/03/15 08:52:26;;;;;;;;;;;;;;;;;;6178006;23;19930;-93
2023/03/15 08:54:52;;;;;;;;;;;;;;;;;;6145069;23;20384;-92
2023/03/15 08:57:18;;;;;;;;;;;;;;;;;;6176793;23;19974;-92
2023/03/15 08:59:44;;;;;;;;;;;;;;;;;;6171089;23;19989;-93
2023/03/15 09:02:11;;;;;;;;;;;;;;;;;;6176467;23;19965;-92
2023/03/15 09:04:37;;;;;;;;;;;;;;;;;;6146401;23;19928;-91
2023/03/15 09:07:03;;;;;;;;;;;;;;;;;;6151413;23;19986;-92
2023/03/15 09:09:29;;;;;;;;;;;;;;;;;;6151993;23;19951;-92
2023/03/15 09:11:55;;;;;;;;;;;;;;;;;;6150848;23;20243;-91
2023/03/15 09:14:21;;;;;;;;;;;;;;;;;;6176904;23;19966;-92
2023/03/15 09:16:47;;;;;;;;;;;;;;;;;;6151608;23;20328;-91
2023/03/15 09:19:13;;;;;;;;;;;;;;;;;;6175722;23;19916;-92
2023/03/15 09:21:39;;;;;;;;;;;;;;;;;;6149944;23;19994;-92
2023/03/15 09:24:05;;;;;;;;;;;;;;;;;;6182176;23;19920;-91
2023/03/15 09:26:31;;;;;;;;;;;;;;;;;;6186016;23;19943;-92
2023/03/15 09:28:57;;;;;;;;;;;;;;;;;;6156829;23;19920;-91
2023/03/15 09:31:23;;;;;;;;;;;;;;;;;;6180499;23;20260;-90
2023/03/15 09:33:49;;;;;;;;;;;;;;;;;;6154084;23;19920;-92
2023/03/15 09:36:15;;;;;;;;;;;;;;;;;;6180954;23;19920;-92
2023/03/15 09:38:41;;;;;;;;;;;;;;;;;;6151766;23;19927;-92
2023/03/15 09:41:10;;;;;;;;;;;;;;;;;;6177987;23;19951;-92
2023/03/15 09:43:36;;;;;;;;;;;;;;;;;;6204162;23;19931;-92
2023/03/15 09:46:02;;;;;;;;;;;;;;;;;;6177381;23;19920;-92
2023/03/15 09:48:28;;;;;;;;;;;;;;;;;;6178439;23;20179;-92
2023/03/15 09:50:54;;;;;;;;;;;;;;;;;;6152569;23;19991;-91
2023/03/15 09:53:19;;;;;;;;;;;;;;;;;;6154352;23;19920;-92
2023/03/15 09:55:45;;;;;;;;;;;;;;;;;;6172777;23;19982;-92
2023/03/15 09:58:11;;;;;;;;;;;;;;;;;;6152928;23;19923;-91
2023/03/15 10:00:37;;;;;;;;;;;;;;;;;;6151127;23;20234;-91
2023/03/15 10:03:06;;;;;;;;;;;;;;;;;;6177044;23;19926;-91
2023/03/15 10:05:32;;;;;;;;;;;;;;;;;;6178803;23;19939;-91
2023/03/15 10:07:58;;;;;;;;;;;;;;;;;;6150266;23;19927;-91
2023/03/15 10:10:23;;;;;;;;;;;;;;;;;;6177873;23;20336;-91
2023/03/15 10:12:50;;;;;;;;;;;;;;;;;;6173722;23;19978;-91
2023/03/15 10:15:16;;;;;;;;;;;;;;;;;;6179630;23;20392;-91
2023/03/15 10:17:42;;;;;;;;;;;;;;;;;;6149131;23;19989;-91
2023/03/15 10:20:08;;;;;;;;;;;;;;;;;;6152944;23;19923;-91
2023/03/15 10:22:34;;;;;;;;;;;;;;;;;;6177779;23;20218;-91
2023/03/15 10:25:06;;;;;;;;;;;;;;;;;;6153026;23;19966;-92
2023/03/15 10:27:32;;;;;;;;;;;;;;;;;;6178826;23;20284;-91
2023/03/15 10:29:58;;;;;;;;;;;;;;;;;;6149217;23;19920;-91
2023/03/15 10:32:24;;;;;;;;;;;;;;;;;;6153597;23;19924;-91
2023/03/15 10:34:51;;;;;;;;;;;;;;;;;;6150964;23;19995;-91
2023/03/15 10:37:16;;;;;;;;;;;;;;;;;;6203287;23;20327;-92
2023/03/15 10:39:45;;;;;;;;;;;;;;;;;;6175695;23;19920;-91
2023/03/15 10:42:11;;;;;;;;;;;;;;;;;;6180327;23;19920;-91
2023/03/15 10:44:37;;;;;;;;;;;;;;;;;;6175483;23;19962;-91
2023/03/15 10:47:05;;;;;;;;;;;;;;;;;;6154744;23;19973;-91
2023/03/15 10:49:32;;;;;;;;;;;;;;;;;;6155229;23;20248;-91
2023/03/15 10:51:58;;;;;;;;;;;;;;;;;;6175484;23;19928;-91
2023/03/15 10:54:24;;;;;;;;;;;;;;;;;;6153507;23;19933;-92
2023/03/15 10:56:49;;;;;;;;;;;;;;;;;;6177344;23;19920;-91
2023/03/15 10:59:16;;;;;;;;;;;;;;;;;;6181953;23;19920;-91
2023/03/15 11:01:43;;;;;;;;;;;;;;;;;;6176091;23;19943;-91
2023/03/15 11:04:09;;;;;;;;;;;;;;;;;;6178457;23;19993;-91
2023/03/15 11:06:37;;;;;;;;;;;;;;;;;;6156515;23;19965;-91
2023/03/15 11:09:03;;;;;;;;;;;;;;;;;;6155392;23;20001;-91
2023/03/15 11:11:30;;;;;;;;;;;;;;;;;;6150335;23;19920;-91
2023/03/15 11:13:56;;;;;;;;;;;;;;;;;;6178010;23;19983;-91
2023/03/15 11:16:22;;;;;;;;;;;;;;;;;;6153377;23;19958;-91
2023/03/15 11:18:48;;;;;;;;;;;;;;;;;;6177697;23;19923;-91
2023/03/15 11:21:14;;;;;;;;;;;;;;;;;;6153979;23;19999;-92
2023/03/15 11:23:40;;;;;;;;;;;;;;;;;;6177865;23;19923;-93
2023/03/15 11:26:06;;;;;;;;;;;;;;;;;;6178992;23;20240;-91
2023/03/15 11:28:32;;;;;;;;;;;;;;;;;;6179169;23;20404;-91
2023/03/15 11:31:03;;;;;;;;;;;;;;;;;;6150647;23;20264;-91
2023/03/15 11:33:32;;;;;;;;;;;;;;;;;;6179630;23;20003;-91
2023/03/15 11:35:58;;;;;;;;;;;;;;;;;;6174715;23;19970;-91
2023/03/15 11:38:24;;;;;;;;;;;;;;;;;;6176787;23;20333;-91
2023/03/15 11:40:50;;;;;;;;;;;;;;;;;;6175778;23;19916;-91
2023/03/15 11:43:16;;;;;;;;;;;;;;;;;;6151185;23;19983;-91
2023/03/15 11:45:42;;;;;;;;;;;;;;;;;;6175900;23;19942;-91
2023/03/15 11:48:08;;;;;;;;;;;;;;;;;;6153852;23;19924;-91
2023/03/15 11:50:34;;;;;;;;;;;;;;;;;;6154402;23;20426;-91
2023/03/15 11:53:02;;;;;;;;;;;;;;;;;;6175779;23;19986;-90
2023/03/15 11:55:28;;;;;;;;;;;;;;;;;;6155534;23;19982;-91
2023/03/15 11:57:54;;;;;;;;;;;;;;;;;;6149709;23;19920;-91
2023/03/15 12:00:20;;;;;;;;;;;;;;;;;;6154972;23;19919;-91
2023/03/15 12:02:47;;;;;;;;;;;;;;;;;;6173903;23;19923;-91
2023/03/15 12:05:13;;;;;;;;;;;;;;;;;;6154480;23;19920;-91
2023/03/15 12:07:39;;;;;;;;;;;;;;;;;;6150018;23;19919;-91
2023/03/15 12:10:04;;;;;;;;;;;;;;;;;;6177570;23;20023;-91
2023/03/15 12:12:30;;;;;;;;;;;;;;;;;;6177743;23;20344;-91
2023/03/15 12:14:56;;;;;;;;;;;;;;;;;;6152001;23;20248;-91
2023/03/15 12:17:22;;;;;;;;;;;;;;;;;;6179306;23;19919;-92
2023/03/15 12:19:48;;;;;;;;;;;;;;;;;;6151192;23;19920;-90
2023/03/15 12:22:14;;;;;;;;;;;;;;;;;;6152983;23;19931;-91
2023/03/15 12:24:40;;;;;;;;;;;;;;;;;;6149453;23;20520;-91
2023/03/15 12:27:06;;;;;;;;;;;;;;;;;;6178743;23;20067;-91
2023/03/15 12:29:32;;;;;;;;;;;;;;;;;;6152285;23;19920;-90
2023/03/15 12:31:58;;;;;;;;;;;;;;;;;;6175906;23;19924;-90
2023/03/15 12:34:24;;;;;;;;;;;;;;;;;;6150868;23;20273;-91
2023/03/15 12:36:50;;;;;;;;;;;;;;;;;;6151364;23;19919;-91
2023/03/15 12:39:16;;;;;;;;;;;;;;;;;;6156182;23;19942;-90
2023/03/15 12:41:42;;;;;;;;;;;;;;;;;;6178834;23;19947;-91
2023/03/15 12:44:08;;;;;;;;;;;;;;;;;;6179309;23;19922;-91
2023/03/15 12:46:38;;;;;;;;;;;;;;;;;;6153175;23;19926;-91
2023/03/15 12:49:04;;;;;;;;;;;;;;;;;;6181252;23;19920;-91
2023/03/15 12:51:30;;;;;;;;;;;;;;;;;;6181168;23;19966;-91
2023/03/15 12:53:56;;;;;;;;;;;;;;;;;;6153334;23;20772;-90
2023/03/15 12:56:22;;;;;;;;;;;;;;;;;;6180653;23;19920;-90
2023/03/15 12:58:48;;;;;;;;;;;;;;;;;;6177117;23;19924;-91
2023/03/15 13:01:15;;;;;;;;;;;;;;;;;;6177271;23;19999;-92
2023/03/15 13:03:42;;;;;;;;;;;;;;;;;;6153600;23;20244;-91
2023/03/15 13:06:09;;;;;;;;;;;;;;;;;;6156109;23;19923;-91
2023/03/15 13:08:37;;;;;;;;;;;;;;;;;;6171936;23;19951;-91
2023/03/15 13:11:03;;;;;;;;;;;;;;;;;;6179509;23;19922;-91
2023/03/15 13:13:29;;;;;;;;;;;;;;;;;;6153262;23;19923;-90
2023/03/15 13:15:55;;;;;;;;;;;;;;;;;;6174038;23;20598;-91
2023/03/15 13:18:21;;;;;;;;;;;;;;;;;;6149619;23;19978;-90
2023/03/15 13:20:47;;;;;;;;;;;;;;;;;;6149434;23;19924;-91
2023/03/15 13:23:14;;;;;;;;;;;;;;;;;;6152587;23;19942;-90
2023/03/15 13:25:40;;;;;;;;;;;;;;;;;;6172521;23;19927;-91
2023/03/15 13:28:06;;;;;;;;;;;;;;;;;;6179015;23;19919;-91
2023/03/15 13:30:33;;;;;;;;;;;;;;;;;;6178927;23;19916;-91
2023/03/15 13:32:59;;;;;;;;;;;;;;;;;;6175889;23;19924;-91
2023/03/15 13:35:24;;;;;;;;;;;;;;;;;;6201958;23;19920;-91
2023/03/15 13:37:50;;;;;;;;;;;;;;;;;;6200351;23;19927;-91
2023/03/15 13:40:16;;;;;;;;;;;;;;;;;;6203321;23;20253;-90
2023/03/15 13:42:42;;;;;;;;;;;;;;;;;;6199579;23;20254;-90
2023/03/15 13:45:11;;;;;;;;;;;;;;;;;;6197029;23;20204;-90
2023/03/15 13:47:37;;;;;;;;;;;;;;;;;;6197325;23;19920;-91
2023/03/15 13:50:03;;;;;;;;;;;;;;;;;;6179251;23;19916;-90
2023/03/15 13:52:29;;;;;;;;;;;;;;;;;;6178520;23;19960;-91
2023/03/15 13:54:55;;;;;;;;;;;;;;;;;;6170395;23;20333;-90
2023/03/15 13:57:21;;;;;;;;;;;;;;;;;;6204650;23;19927;-91
2023/03/15 13:59:47;;;;;;;;;;;;;;;;;;6201428;23;19920;-90
2023/03/15 14:02:13;;;;;;;;;;;;;;;;;;6202446;23;19927;-93
2023/03/15 14:04:39;;;;;;;;;;;;;;;;;;6200331;23;20385;-91
2023/03/15 14:07:05;;;;;;;;;;;;;;;;;;6204073;23;20387;-92
2023/03/15 14:09:31;;;;;;;;;;;;;;;;;;6177936;23;19955;-91
2023/03/15 14:11:57;;;;;;;;;;;;;;;;;;6148444;23;19962;-91
2023/03/15 14:14:23;;;;;;;;;;;;;;;;;;6178277;23;19995;-91
2023/03/15 14:16:49;;;;;;;;;;;;;;;;;;6151461;23;19920;-91
2023/03/15 14:19:15;;;;;;;;;;;;;;;;;;6202453;23;20236;-91
2023/03/15 14:21:43;;;;;;;;;;;;;;;;;;6172298;23;19916;-91
2023/03/15 14:24:09;;;;;;;;;;;;;;;;;;6201454;23;19920;-91
2023/03/15 14:26:35;;;;;;;;;;;;;;;;;;6203443;23;19923;-91
2023/03/15 14:29:01;;;;;;;;;;;;;;;;;;6176348;23;19946;-91
2023/03/15 14:31:27;;;;;;;;;;;;;;;;;;6175569;23;20100;-91
2023/03/15 14:33:53;;;;;;;;;;;;;;;;;;6174575;23;19924;-91
2023/03/15 14:36:19;;;;;;;;;;;;;;;;;;6177937;23;19916;-91
2023/03/15 14:38:45;;;;;;;;;;;;;;;;;;6200001;23;20332;-91
2023/03/15 14:41:11;;;;;;;;;;;;;;;;;;6146937;23;19923;-90
2023/03/15 14:43:37;;;;;;;;;;;;;;;;;;6147054;23;20323;-91
2023/03/15 14:46:03;;;;;;;;;;;;;;;;;;6176026;23;19924;-91
2023/03/15 14:48:30;;;;;;;;;;;;;;;;;;6150826;23;19942;-92
2023/03/15 14:55:59;;;;;;;;;;;;;;;;;;6174909;23;19967;-85
2023/03/15 14:58:28;;;;;;;;;;;;;;;;;;6146226;23;19955;-85
2023/03/15 15:00:57;;;;;;;;;;;;;;;;;;6145001;23;19920;-86
2023/03/15 15:03:26;;;;;;;;;;;;;;;;;;6149427;23;19916;-86
2023/03/15 15:06:01;;;;;;;;;;;;;;;;;;6146903;23;20400;-86
2023/03/15 15:08:30;;;;;;;;;;;;;;;;;;6144639;23;19920;-86
2023/03/15 15:10:59;;;;;;;;;;;;;;;;;;6145322;23;19928;-86
2023/03/15 15:13:25;;;;;;;;;;;;;;;;;;6149220;23;19998;-86
2023/03/15 15:16:04;;;;;;;;;;;;;;;;;;6147546;23;20295;-86
2023/03/15 15:18:41;;;;;;;;;;;;;;;;;;6174269;23;19923;-86
2023/03/15 15:21:10;;;;;;;;;;;;;;;;;;6147023;23;19916;-86
2023/03/15 15:23:36;;;;;;;;;;;;;;;;;;6152220;23;20015;-87
2023/03/15 15:26:04;;;;;;;;;;;;;;;;;;6175659;23;19932;-87
2023/03/15 15:31:26;;;;;;;;;;;;;;;;;;6176150;23;19967;-87
2023/03/15 15:33:52;;;;;;;;;;;;;;;;;;6146114;23;19930;-87
2023/03/15 15:36:18;;;;;;;;;;;;;;;;;;6144378;23;19927;-87
2023/03/15 15:38:44;;;;;;;;;;;;;;;;;;6153482;23;19949;-87
2023/03/15 15:41:19;;;;;;;;;;;;;;;;;;6150326;23;19998;-86
2023/03/15 15:43:48;;;;;;;;;;;;;;;;;;6150500;23;20325;-87
2023/03/15 15:46:14;;;;;;;;;;;;;;;;;;6156262;23;20308;-88
2023/03/15 15:48:53;;;;;;;;;;;;;;;;;;6177934;23;20333;-87
2023/03/15 15:51:24;;;;;;;;;;;;;;;;;;6154657;23;19926;-87
2023/03/15 15:56:54;;;;;;;;;;;;;;;;;;6167627;23;20206;-87
2023/03/15 15:59:20;;;;;;;;;;;;;;;;;;6181419;22;19915;-88
2023/03/15 16:01:57;;;;;;;;;;;;;;;;;;6180764;22;19938;-87
2023/03/15 16:04:41;;;;;;;;;;;;;;;;;;6162819;23;19920;-86
2023/03/15 16:07:13;;;;;;;;;;;;;;;;;;6154916;23;20234;-87
2023/03/15 16:09:48;;;;;;;;;;;;;;;;;;6152000;23;19916;-87
2023/03/15 16:12:19;;;;;;;;;;;;;;;;;;6102385;23;19924;-87
2023/03/15 16:14:45;;;;;;;;;;;;;;;;;;6152870;23;19923;-87
2023/03/15 16:17:21;;;;;;;;;;;;;;;;;;;;;
2023/03/15 16:19:50;;;;;;;;;;;;;;;;;;6180008;23;20018;-88
2023/03/15 16:22:16;;;;;;;;;;;;;;;;;;6155793;23;19919;-88
2023/03/15 16:24:50;;;;;;;;;;;;;;;;;;6155694;23;19923;-88
2023/03/15 16:27:29;;;;;;;;;;;;;;;;;;;;;
2023/03/15 16:30:08;;;;;;;;;;;;;;;;;;6218884;23;19920;-87
2023/03/15 16:32:39;;;;;;;;;;;;;;;;;;6154422;23;19959;-87
2023/03/15 16:35:25;;;;;;;;;;;;;;;;;;6180541;23;19920;-88
2023/03/15 16:38:00;;;;;;;;;;;;;;;;;;6180342;23;19978;-87
2023/03/15 16:40:26;;;;;;;;;;;;;;;;;;6116540;23;20278;-86
2023/03/15 16:43:10;;;;;;;;;;;;;;;;;;6087545;23;19917;-87
2023/03/15 16:45:43;;;;;;;;;;;;;;;;;;6084024;23;20248;-87
2023/03/15 16:48:17;;;;;;;;;;;;;;;;;;6088961;23;20103;-87
2023/03/15 16:50:47;;;;;;;;;;;;;;;;;;6080816;23;19961;-87
2023/03/15 16:56:18;;;;;;;;;;;;;;;;;;6081593;23;20418;-87